createdAt,value
2022-10-29T00:02:12.091Z,5.93
2022-10-29T00:04:39.462Z,6.23
2022-10-29T00:07:06.831Z,5.67
2022-10-29T00:09:35.637Z,5.83
2022-10-29T00:12:15.162Z,6.33
2022-10-29T00:14:42.483Z,6.33
2022-10-29T00:17:09.813Z,6.50
2022-10-29T00:19:37.302Z,5.33
2022-10-29T00:22:04.702Z,6.17
2022-10-29T00:24:32.186Z,4.60
2022-10-29T00:26:59.564Z,5.10
2022-10-29T00:29:26.937Z,5.50
2022-10-29T00:31:54.445Z,8.33
2022-10-29T00:34:21.893Z,6.07
2022-10-29T00:36:49.265Z,4.90
2022-10-29T00:39:17.267Z,6.30
2022-10-29T00:41:46.027Z,4.77
2022-10-29T00:44:20.661Z,4.17
2022-10-29T00:46:59.793Z,5.93
2022-10-29T00:49:27.592Z,5.20
2022-10-29T00:51:55.618Z,3.60
2022-10-29T00:54:23.719Z,4.20
2022-10-29T00:56:56.391Z,4.43
2022-10-29T00:59:24.713Z,5.03
2022-10-29T01:01:52.541Z,3.93
2022-10-29T01:04:20.900Z,8.00
2022-10-29T01:06:48.760Z,6.43
2022-10-29T01:09:16.177Z,6.37
2022-10-29T01:12:02.315Z,5.93
2022-10-29T01:14:52.611Z,7.00
2022-10-29T01:17:44.707Z,4.20
2022-10-29T01:20:41.114Z,4.43
2022-10-29T01:23:42.379Z,3.80
2022-10-29T01:26:40.198Z,6.20
2022-10-29T01:30:02.102Z,6.63
2022-10-29T01:32:52.283Z,7.37
2022-10-29T01:36:03.494Z,5.20
2022-10-29T01:38:48.329Z,4.43
2022-10-29T01:41:50.012Z,6.43
2022-10-29T01:44:26.408Z,5.23
2022-10-29T01:46:58.161Z,6.17
2022-10-29T01:49:34.294Z,7.53
2022-10-29T01:52:08.949Z,6.60
2022-10-29T01:54:43.912Z,6.37
2022-10-29T01:57:28.820Z,6.20
2022-10-29T02:00:04.514Z,5.20
2022-10-29T02:03:07.966Z,5.20
2022-10-29T02:05:52.926Z,4.00
2022-10-29T02:08:44.684Z,5.90
2022-10-29T02:11:19.155Z,6.30
2022-10-29T02:14:04.936Z,6.10
2022-10-29T02:16:33.482Z,4.00
2022-10-29T02:19:01.070Z,5.77
2022-10-29T02:21:28.460Z,4.83
2022-10-29T02:24:02.869Z,5.60
2022-10-29T02:26:30.258Z,5.67
2022-10-29T02:28:59.161Z,4.27
2022-10-29T02:31:26.538Z,4.93
2022-10-29T02:33:53.957Z,5.23
2022-10-29T02:36:27.252Z,4.73
2022-10-29T02:38:54.694Z,3.93
2022-10-29T02:41:22.135Z,4.93
2022-10-29T02:43:49.430Z,4.70
2022-10-29T02:46:22.445Z,5.53
2022-10-29T02:48:50.423Z,4.60
2022-10-29T02:51:18.295Z,6.90
2022-10-29T02:54:04.226Z,4.10
2022-10-29T02:56:33.788Z,4.50
2022-10-29T02:59:01.193Z,5.83
2022-10-29T03:01:28.853Z,5.47
2022-10-29T03:03:58.544Z,6.90
2022-10-29T03:06:26.078Z,6.67
2022-10-29T03:08:53.515Z,5.90
2022-10-29T03:11:20.910Z,7.60
2022-10-29T03:13:48.400Z,6.17
2022-10-29T03:16:15.838Z,7.20
2022-10-29T03:18:43.197Z,6.73
2022-10-29T03:21:10.605Z,5.67
2022-10-29T03:23:38.164Z,6.90
2022-10-29T03:26:06.053Z,4.30
2022-10-29T03:28:33.512Z,7.80
2022-10-29T03:31:01.051Z,4.33
2022-10-29T03:33:28.523Z,6.57
2022-10-29T03:36:14.256Z,7.87
2022-10-29T03:38:41.670Z,4.47
2022-10-29T03:41:11.973Z,5.20
2022-10-29T03:43:42.568Z,5.13
2022-10-29T03:46:10.023Z,5.80
2022-10-29T03:48:39.473Z,5.87
2022-10-29T03:51:10.097Z,5.63
2022-10-29T03:53:37.757Z,6.50
2022-10-29T03:58:29.683Z,6.43
2022-10-29T04:01:02.819Z,4.90
2022-10-29T04:03:31.891Z,5.80
2022-10-29T04:06:01.120Z,6.97
2022-10-29T04:08:28.513Z,4.13
2022-10-29T04:10:56.239Z,5.53
2022-10-29T04:13:26.727Z,6.07
2022-10-29T04:15:55.524Z,7.20
2022-10-29T04:18:23.970Z,4.90
2022-10-29T04:29:12.979Z,4.87
2022-10-29T04:31:40.243Z,5.97
2022-10-29T04:34:07.682Z,5.43
2022-10-29T04:36:35.155Z,5.83
2022-10-29T04:39:02.494Z,5.77
2022-10-29T04:41:29.827Z,4.80
2022-10-29T04:43:59.664Z,6.27
2022-10-29T04:46:26.979Z,4.70
2022-10-29T04:48:54.406Z,6.23
2022-10-29T04:51:24.313Z,6.33
2022-10-29T04:54:00.531Z,5.23
2022-10-29T04:56:29.840Z,4.77
2022-10-29T04:58:57.109Z,6.50
2022-10-29T05:01:24.434Z,4.67
2022-10-29T05:03:55.505Z,4.93
2022-10-29T05:06:26.179Z,5.67
2022-10-29T05:08:53.573Z,4.73
2022-10-29T05:11:20.894Z,5.17
2022-10-29T05:13:51.007Z,5.13
2022-10-29T05:16:18.321Z,4.17
2022-10-29T05:18:45.651Z,5.07
2022-10-29T05:21:12.948Z,7.97
2022-10-29T05:23:40.269Z,9.73
2022-10-29T05:26:07.486Z,6.30
2022-10-29T05:28:34.829Z,5.33
2022-10-29T05:31:05.235Z,6.10
2022-10-29T05:33:35.156Z,8.53
2022-10-29T05:36:02.618Z,6.80
2022-10-29T05:38:29.855Z,9.33
2022-10-29T05:41:00.281Z,6.23
2022-10-29T05:43:28.170Z,6.53
2022-10-29T05:45:55.464Z,6.60
2022-10-29T05:48:22.774Z,5.43
2022-10-29T05:50:50.180Z,4.80
2022-10-29T05:53:17.569Z,5.33
2022-10-29T05:55:44.965Z,5.67
2022-10-29T05:58:14.374Z,6.03
2022-10-29T06:00:44.579Z,5.27
2022-10-29T06:03:20.945Z,5.17
2022-10-29T06:05:51.064Z,7.83
2022-10-29T06:08:23.846Z,5.23
2022-10-29T06:10:51.338Z,5.70
2022-10-29T06:13:20.704Z,4.93
2022-10-29T06:15:49.777Z,7.83
2022-10-29T06:18:22.715Z,6.07
2022-10-29T06:20:52.925Z,5.10
2022-10-29T06:23:20.361Z,6.13
2022-10-29T06:25:47.854Z,7.53
2022-10-29T06:28:16.541Z,7.33
2022-10-29T06:30:49.138Z,5.60
2022-10-29T06:33:18.193Z,5.83
2022-10-29T06:35:45.749Z,5.10
2022-10-29T06:38:13.430Z,7.30
2022-10-29T06:40:42.194Z,5.50
2022-10-29T06:43:11.697Z,5.93
2022-10-29T06:45:39.499Z,5.93
2022-10-29T06:48:07.229Z,6.77
2022-10-29T06:50:34.624Z,7.93
2022-10-29T06:53:05.312Z,7.27
2022-10-29T06:55:40.265Z,9.13
2022-10-29T06:58:17.875Z,6.90
2022-10-29T07:00:45.904Z,6.23
2022-10-29T07:03:17.327Z,6.60
2022-10-29T07:06:03.390Z,7.70
2022-10-29T07:08:30.759Z,6.93
2022-10-29T07:10:58.120Z,4.30
2022-10-29T07:13:25.447Z,6.87
2022-10-29T07:15:52.752Z,5.33
2022-10-29T07:18:38.365Z,7.00
2022-10-29T07:21:05.836Z,9.53
2022-10-29T07:23:33.149Z,8.87
2022-10-29T07:26:00.443Z,8.17
2022-10-29T07:28:27.786Z,7.37
2022-10-29T07:31:00.236Z,6.27
2022-10-29T07:33:31.138Z,5.73
2022-10-29T07:35:59.525Z,6.60
2022-10-29T07:38:26.924Z,7.50
2022-10-29T07:40:54.839Z,8.83
2022-10-29T07:43:24.825Z,9.30
2022-10-29T07:45:52.059Z,6.33
2022-10-29T07:48:20.857Z,7.40
2022-10-29T07:50:48.597Z,6.83
2022-10-29T07:53:15.904Z,7.03
2022-10-29T07:55:43.227Z,7.83
2022-10-29T07:58:12.778Z,13.20
2022-10-29T08:00:41.285Z,17.30
2022-10-29T08:03:10.639Z,8.27
2022-10-29T08:05:38.478Z,8.43
2022-10-29T08:08:06.697Z,12.77
2022-10-29T08:10:35.296Z,10.00
2022-10-29T08:13:05.506Z,11.10
2022-10-29T08:15:35.049Z,7.40
2022-10-29T08:18:12.208Z,14.87
2022-10-29T08:20:39.383Z,11.03
2022-10-29T08:23:06.563Z,16.23
2022-10-29T08:25:33.801Z,10.80
2022-10-29T08:28:03.529Z,8.17
2022-10-29T08:30:32.071Z,21.30
2022-10-29T08:33:00.552Z,11.63
2022-10-29T08:35:29.162Z,9.70
2022-10-29T08:37:56.882Z,7.17
2022-10-29T08:40:42.378Z,14.07
2022-10-29T08:43:28.584Z,15.38
2022-10-29T08:45:57.013Z,17.83
2022-10-29T08:48:37.042Z,8.00
2022-10-29T08:51:19.589Z,7.35
2022-10-29T08:53:58.646Z,6.15
2022-10-29T08:56:39.858Z,6.18
2022-10-29T08:59:13.682Z,6.28
2022-10-29T09:01:41.095Z,5.68
2022-10-29T09:04:35.586Z,5.38
2022-10-29T09:07:57.120Z,7.45
2022-10-29T09:10:26.700Z,7.20
2022-10-29T09:13:26.430Z,8.27
2022-10-29T09:16:21.723Z,8.48
2022-10-29T09:19:33.506Z,7.70
2022-10-29T09:22:47.553Z,7.55
2022-10-29T09:25:20.044Z,7.10
2022-10-29T09:28:25.069Z,6.32
2022-10-29T09:31:09.787Z,6.93
2022-10-29T09:33:38.508Z,6.35
2022-10-29T09:36:14.307Z,5.90
2022-10-29T09:38:49.048Z,7.80
2022-10-29T09:41:16.374Z,6.60
2022-10-29T09:43:46.560Z,6.90
2022-10-29T09:46:30.544Z,7.85
2022-10-29T09:49:33.328Z,7.97
2022-10-29T09:52:23.777Z,6.45
2022-10-29T09:54:53.903Z,5.95
2022-10-29T09:57:29.440Z,6.53
2022-10-29T10:00:03.058Z,6.38
2022-10-29T10:02:44.463Z,6.40
2022-10-29T10:05:25.059Z,8.90
2022-10-29T10:08:07.407Z,11.23
2022-10-29T10:10:56.045Z,9.50
2022-10-29T10:13:31.369Z,8.60
2022-10-29T10:16:01.637Z,6.90
2022-10-29T10:18:31.815Z,16.00
2022-10-29T10:21:07.936Z,12.07
2022-10-29T10:23:51.731Z,6.57
2022-10-29T10:26:33.952Z,5.82
2022-10-29T10:29:14.718Z,6.47
2022-10-29T10:31:57.911Z,5.68
2022-10-29T10:34:34.413Z,5.22
2022-10-29T10:37:10.889Z,4.88
2022-10-29T10:39:43.562Z,5.75
2022-10-29T10:42:24.306Z,5.47
2022-10-29T10:44:56.461Z,4.78
2022-10-29T10:47:28.238Z,6.85
2022-10-29T10:50:11.084Z,5.45
2022-10-29T10:52:38.741Z,4.30
2022-10-29T10:55:23.073Z,4.82
2022-10-29T10:58:12.442Z,5.13
2022-10-29T11:00:44.043Z,4.88
2022-10-29T11:06:07.091Z,4.70
2022-10-29T11:08:40.902Z,6.35
2022-10-29T11:11:36.715Z,4.53
2022-10-29T11:14:12.312Z,4.45
2022-10-29T11:16:58.099Z,8.73
2022-10-29T11:19:37.294Z,4.88
2022-10-29T11:22:04.449Z,4.40
2022-10-29T11:24:57.883Z,18.55
2022-10-29T11:27:43.308Z,5.47
2022-10-29T11:30:13.313Z,6.00
2022-10-29T11:33:06.422Z,4.75
2022-10-29T11:36:00.605Z,4.82
2022-10-29T11:38:39.660Z,5.65
2022-10-29T11:41:25.084Z,4.70
2022-10-29T11:43:52.389Z,4.95
2022-10-29T11:46:40.844Z,5.05
2022-10-29T11:49:33.968Z,4.35
2022-10-29T11:52:10.592Z,3.88
2022-10-29T11:54:58.966Z,5.30
2022-10-29T11:57:39.506Z,4.20
2022-10-29T12:00:19.579Z,6.47
2022-10-29T12:03:25.053Z,5.22
2022-10-29T12:06:14.196Z,4.10
2022-10-29T12:09:02.405Z,5.82
2022-10-29T12:11:45.606Z,5.80
2022-10-29T12:14:33.450Z,5.15
2022-10-29T12:17:24.616Z,3.75
2022-10-29T12:20:00.558Z,4.20
2022-10-29T12:23:25.347Z,4.15
2022-10-29T12:26:11.166Z,4.28
2022-10-29T12:28:55.403Z,4.55
2022-10-29T12:31:36.171Z,4.50
2022-10-29T12:34:08.341Z,4.55
2022-10-29T12:36:43.716Z,4.53
2022-10-29T12:39:24.869Z,4.57
2022-10-29T12:42:27.439Z,4.30
2022-10-29T12:45:00.784Z,4.70
2022-10-29T12:47:50.294Z,4.82
2022-10-29T12:50:45.134Z,4.55
2022-10-29T12:53:24.293Z,4.18
2022-10-29T12:55:52.282Z,5.25
2022-10-29T12:58:59.731Z,4.35
2022-10-29T13:01:57.393Z,5.03
2022-10-29T13:04:22.869Z,4.70
2022-10-29T13:07:02.270Z,4.30
2022-10-29T13:09:36.073Z,3.97
2022-10-29T13:12:11.541Z,4.35
2022-10-29T13:14:50.019Z,4.63
2022-10-29T13:17:28.738Z,4.70
2022-10-29T13:20:30.377Z,4.20
2022-10-29T13:22:59.276Z,4.72
2022-10-29T13:25:38.458Z,5.97
2022-10-29T13:28:08.635Z,5.47
2022-10-29T13:30:44.100Z,5.20
2022-10-29T13:33:23.392Z,4.60
2022-10-29T13:35:58.919Z,4.20
2022-10-29T13:38:57.772Z,5.43
2022-10-29T13:41:42.818Z,6.18
2022-10-29T13:44:13.686Z,5.95
2022-10-29T13:47:03.074Z,4.60
2022-10-29T13:49:42.378Z,4.78
2022-10-29T13:52:09.504Z,4.85
2022-10-29T13:54:44.152Z,4.45
2022-10-29T13:57:34.353Z,6.50
2022-10-29T14:00:10.424Z,4.82
2022-10-29T14:02:48.276Z,4.30
2022-10-29T14:05:38.351Z,5.07
2022-10-29T14:08:12.369Z,4.43
2022-10-29T14:10:39.393Z,4.70
2022-10-29T14:13:06.563Z,4.53
2022-10-29T14:15:34.835Z,4.80
2022-10-29T14:18:19.242Z,5.40
2022-10-29T14:20:57.808Z,4.93
2022-10-29T14:23:27.193Z,4.43
2022-10-29T14:25:56.953Z,4.80
2022-10-29T14:28:31.328Z,4.32
2022-10-29T14:31:15.984Z,6.10
2022-10-29T14:33:52.344Z,4.18
2022-10-29T14:36:22.730Z,4.78
2022-10-29T14:39:03.008Z,4.45
2022-10-29T14:41:31.625Z,5.38
2022-10-29T14:44:02.597Z,4.50
2022-10-29T14:46:35.732Z,6.60
2022-10-29T14:49:17.814Z,5.53
2022-10-29T14:51:57.872Z,6.03
2022-10-29T14:54:39.790Z,5.82
2022-10-29T14:57:21.285Z,6.38
2022-10-29T15:00:09.894Z,6.70
2022-10-29T15:02:43.240Z,5.28
2022-10-29T15:05:28.502Z,6.30
2022-10-29T15:08:11.108Z,5.20
2022-10-29T15:11:04.894Z,5.80
2022-10-29T15:13:46.325Z,5.75
2022-10-29T15:16:30.603Z,6.85
2022-10-29T15:19:12.920Z,5.40
2022-10-29T15:21:49.099Z,5.38
2022-10-29T15:24:28.302Z,5.72
2022-10-29T15:30:01.779Z,5.25
2022-10-29T15:32:31.821Z,6.15
2022-10-29T15:35:01.860Z,6.28
2022-10-29T15:38:01.879Z,5.82
2022-10-29T15:40:38.456Z,7.65
2022-10-29T15:43:38.730Z,12.75
2022-10-29T15:46:05.994Z,8.80
2022-10-29T15:48:38.748Z,11.45
2022-10-29T15:51:06.211Z,11.65
2022-10-29T15:53:38.987Z,7.10
2022-10-29T15:56:07.263Z,7.93
2022-10-29T15:58:44.634Z,7.97
2022-10-29T16:01:13.359Z,7.30
2022-10-29T16:04:25.931Z,7.97
2022-10-29T16:06:55.488Z,8.60
2022-10-29T16:09:25.951Z,9.93
2022-10-29T16:12:26.297Z,14.07
2022-10-29T16:14:53.568Z,8.23
2022-10-29T16:17:31.304Z,7.83
2022-10-29T16:20:00.944Z,13.60
2022-10-29T16:22:30.746Z,7.60
2022-10-29T16:24:58.396Z,15.63
2022-10-29T16:27:32.998Z,19.17
2022-10-29T16:30:36.991Z,13.90
2022-10-29T16:33:06.448Z,20.87
2022-10-29T16:35:39.513Z,12.77
2022-10-29T16:38:06.714Z,11.37
2022-10-29T16:40:38.091Z,8.80
2022-10-29T16:43:25.655Z,12.03
2022-10-29T16:48:39.289Z,18.57
2022-10-29T16:51:07.450Z,13.70
2022-10-29T16:53:34.974Z,15.27
2022-10-29T16:56:05.302Z,24.37
2022-10-29T16:58:35.624Z,13.07
2022-10-29T17:01:07.982Z,11.20
2022-10-29T17:03:35.671Z,12.93
2022-10-29T17:06:08.542Z,15.57
2022-10-29T17:08:37.076Z,16.13
2022-10-29T17:11:06.775Z,14.60
2022-10-29T17:13:34.875Z,12.73
2022-10-29T17:16:10.551Z,15.67
2022-10-29T17:18:38.960Z,14.00
2022-10-29T17:21:06.427Z,19.60
2022-10-29T17:23:33.738Z,21.30
2022-10-29T17:26:01.429Z,18.57
2022-10-29T17:28:28.799Z,18.23
2022-10-29T17:30:56.180Z,27.50
2022-10-29T17:33:23.471Z,15.00
2022-10-29T17:36:00.109Z,18.47
2022-10-29T17:38:27.686Z,19.93
2022-10-29T17:40:54.893Z,18.27
2022-10-29T17:43:22.372Z,14.10
2022-10-29T17:45:50.797Z,15.70
2022-10-29T17:48:21.023Z,12.53
2022-10-29T17:50:59.767Z,17.07
2022-10-29T17:53:28.300Z,11.63
2022-10-29T17:55:59.870Z,12.77
2022-10-29T17:58:28.637Z,14.60
2022-10-29T18:01:02.474Z,16.00
2022-10-29T18:03:29.652Z,12.30
2022-10-29T18:06:04.988Z,12.57
2022-10-29T18:08:34.606Z,17.50
2022-10-29T18:11:06.729Z,14.13
2022-10-29T18:13:41.422Z,10.50
2022-10-29T18:16:13.808Z,17.00
2022-10-29T18:18:54.513Z,8.40
2022-10-29T18:21:29.706Z,13.77
2022-10-29T18:23:57.006Z,10.17
2022-10-29T18:26:27.802Z,12.80
2022-10-29T18:28:56.106Z,11.80
2022-10-29T18:31:25.677Z,14.67
2022-10-29T18:33:53.278Z,11.43
2022-10-29T18:36:20.442Z,15.47
2022-10-29T18:38:52.845Z,12.23
2022-10-29T18:41:20.768Z,9.43
2022-10-29T18:43:48.726Z,11.17
2022-10-29T18:46:17.050Z,10.00
2022-10-29T18:48:46.970Z,11.27
2022-10-29T18:51:26.411Z,12.00
2022-10-29T18:53:55.600Z,11.67
2022-10-29T18:56:23.194Z,11.70
2022-10-29T18:58:50.660Z,9.77
2022-10-29T19:01:20.969Z,14.30
2022-10-29T19:03:52.937Z,12.03
2022-10-29T19:06:28.935Z,13.20
2022-10-29T19:08:56.789Z,11.00
2022-10-29T19:11:26.192Z,10.60
2022-10-29T19:13:54.647Z,10.63
2022-10-29T19:16:22.256Z,16.63
2022-10-29T19:18:58.034Z,15.73
2022-10-29T19:21:26.300Z,11.77
2022-10-29T19:24:00.482Z,13.47
2022-10-29T19:26:31.282Z,10.20
2022-10-29T19:29:01.332Z,14.83
2022-10-29T19:31:30.724Z,9.93
2022-10-29T19:34:00.391Z,10.93
2022-10-29T19:36:30.479Z,9.57
2022-10-29T19:38:57.853Z,10.67
2022-10-29T19:41:25.727Z,11.33
2022-10-29T19:43:53.038Z,14.03
2022-10-29T19:46:24.739Z,11.27
2022-10-29T19:48:54.565Z,10.40
2022-10-29T19:51:22.734Z,9.83
2022-10-29T19:53:53.079Z,8.27
2022-10-29T19:56:21.896Z,7.27
2022-10-29T19:58:49.231Z,12.77
2022-10-29T20:01:18.171Z,9.27
2022-10-29T20:03:46.845Z,9.30
2022-10-29T20:06:14.960Z,10.67
2022-10-29T20:08:46.189Z,11.10
2022-10-29T20:11:15.429Z,10.70
2022-10-29T20:13:54.713Z,8.97
2022-10-29T20:16:25.908Z,9.83
2022-10-29T20:18:56.957Z,11.50
2022-10-29T20:21:31.655Z,11.43
2022-10-29T20:24:08.232Z,11.37
2022-10-29T20:26:35.576Z,11.17
2022-10-29T20:29:03.069Z,10.63
2022-10-29T20:31:41.911Z,12.70
2022-10-29T20:34:10.319Z,9.60
2022-10-29T20:36:40.411Z,9.00
2022-10-29T20:39:07.903Z,9.30
2022-10-29T20:41:43.910Z,11.00
2022-10-29T20:44:11.171Z,9.23
2022-10-29T20:46:42.520Z,13.70
2022-10-29T20:49:10.802Z,11.07
2022-10-29T20:51:38.067Z,11.33
2022-10-29T20:54:05.360Z,10.20
2022-10-29T20:56:32.591Z,7.93
2022-10-29T20:59:02.267Z,10.07
2022-10-29T21:01:30.249Z,7.37
2022-10-29T21:03:57.638Z,8.73
2022-10-29T21:06:30.633Z,9.73
2022-10-29T21:08:57.907Z,10.93
2022-10-29T21:11:25.156Z,9.07
2022-10-29T21:13:52.371Z,10.20
2022-10-29T21:16:22.252Z,7.73
2022-10-29T21:18:52.128Z,10.43
2022-10-29T21:21:19.681Z,8.67
2022-10-29T21:23:46.861Z,10.90
2022-10-29T21:26:20.148Z,11.10
2022-10-29T21:28:48.889Z,8.90
2022-10-29T21:31:16.887Z,9.67
2022-10-29T21:33:44.618Z,8.47
2022-10-29T21:36:14.344Z,9.33
2022-10-29T21:38:41.687Z,10.97
2022-10-29T21:41:08.997Z,10.13
2022-10-29T21:43:38.254Z,10.30
2022-10-29T21:46:05.627Z,10.90
2022-10-29T21:48:33.171Z,11.17
2022-10-29T21:51:09.997Z,10.37
2022-10-29T21:53:37.304Z,9.97
2022-10-29T21:56:07.320Z,7.93
2022-10-29T21:58:34.716Z,8.50
2022-10-29T22:01:16.045Z,8.47
2022-10-29T22:03:45.249Z,9.87
2022-10-29T22:06:30.939Z,8.60
2022-10-29T22:08:59.757Z,8.43
2022-10-29T22:11:28.441Z,9.40
2022-10-29T22:13:55.870Z,9.20
2022-10-29T22:16:23.531Z,8.90
2022-10-29T22:18:51.141Z,7.70
2022-10-29T22:21:19.438Z,9.37
2022-10-29T22:23:55.391Z,9.60
2022-10-29T22:26:27.551Z,7.47
2022-10-29T22:28:55.088Z,7.67
2022-10-29T22:31:23.882Z,6.97
2022-10-29T22:33:51.749Z,7.40
2022-10-29T22:36:25.215Z,7.83
2022-10-29T22:39:01.587Z,8.17
2022-10-29T22:41:29.786Z,8.03
2022-10-29T22:44:01.107Z,8.90
2022-10-29T22:46:29.640Z,7.80
2022-10-29T22:48:57.078Z,9.03
2022-10-29T22:51:26.999Z,7.97
2022-10-29T22:53:55.441Z,8.83
2022-10-29T22:56:28.514Z,7.60
2022-10-29T22:58:56.527Z,8.00
2022-10-29T23:01:32.000Z,6.40
2022-10-29T23:04:00.028Z,7.63
2022-10-29T23:06:47.872Z,6.43
2022-10-29T23:09:15.221Z,7.57
2022-10-29T23:11:44.621Z,9.33
2022-10-29T23:14:11.803Z,6.80
2022-10-29T23:16:39.054Z,7.23
2022-10-29T23:19:07.244Z,8.67
2022-10-29T23:21:34.483Z,10.00
2022-10-29T23:24:13.913Z,8.60
2022-10-29T23:26:41.119Z,7.80
2022-10-29T23:29:08.417Z,9.97
2022-10-29T23:31:35.687Z,12.03
2022-10-29T23:34:02.878Z,8.10
2022-10-29T23:36:30.167Z,8.07
2022-10-29T23:38:59.476Z,7.97
2022-10-29T23:41:28.560Z,11.70
2022-10-29T23:43:56.185Z,9.93
2022-10-29T23:46:24.750Z,11.53
2022-10-29T23:48:52.011Z,9.53
2022-10-29T23:51:19.297Z,9.00
2022-10-29T23:53:57.484Z,8.57
2022-10-29T23:56:25.722Z,7.60
2022-10-29T23:58:52.959Z,9.33
